Time;durP1;ratioP1;P1;durP2;ratioP2;P2;SDS_P1;SDS_P2;PMS_P1;PMS_P2;Temp;Humidity;BMP_temperature;BMP_pressure;BME280_temperature;BME280_humidity;BME280_pressure;Samples;Min_cycle;Max_cycle;Signal;HPM_P1;HPM_P2
2022/12/25 00:00:40;;;;;;;6.90;4.30;;;;;;;;;;5030389;28;20036;-66
2022/12/25 00:03:06;;;;;;;6.35;4.00;;;;;;;;;;5048338;28;20350;-69
2022/12/25 00:05:32;;;;;;;5.85;4.53;;;;;;;;;;5050089;28;20017;-57
2022/12/25 00:07:57;;;;;;;10.85;4.97;;;;;;;;;;5032502;28;20100;-60
2022/12/25 00:10:23;;;;;;;5.85;4.43;;;;;;;;;;5053162;28;20013;-65
2022/12/25 00:12:49;;;;;;;7.47;4.30;;;;;;;;;;5058354;28;20021;-56
2022/12/25 00:15:15;;;;;;;8.32;4.60;;;;;;;;;;5052909;28;20484;-69
2022/12/25 00:17:40;;;;;;;6.57;4.63;;;;;;;;;;5054152;28;20507;-67
2022/12/25 00:20:07;;;;;;;7.00;4.25;;;;;;;;;;5054519;28;20044;-55
2022/12/25 00:22:32;;;;;;;6.07;4.20;;;;;;;;;;5055380;28;20496;-56
2022/12/25 00:24:58;;;;;;;5.80;4.53;;;;;;;;;;5055609;28;20029;-59
2022/12/25 00:27:23;;;;;;;5.85;4.13;;;;;;;;;;5055420;28;20033;-59
2022/12/25 00:29:49;;;;;;;6.07;4.18;;;;;;;;;;5054274;28;20386;-53
2022/12/25 00:32:14;;;;;;;7.57;4.30;;;;;;;;;;5054097;28;20033;-54
2022/12/25 00:34:40;;;;;;;6.63;4.13;;;;;;;;;;5052730;28;20029;-61
2022/12/25 00:37:06;;;;;;;5.25;4.30;;;;;;;;;;5051364;28;20020;-54
2022/12/25 00:39:31;;;;;;;5.80;4.40;;;;;;;;;;5052775;28;20102;-59
2022/12/25 00:44:41;;;;;;;5.82;3.70;;;;;;;;;;5051245;28;20428;-59
2022/12/25 00:47:06;;;;;;;6.25;4.30;;;;;;;;;;5051038;28;20029;-55
2022/12/25 00:49:33;;;;;;;6.95;4.15;;;;;;;;;;5051680;28;20021;-62
2022/12/25 00:51:58;;;;;;;10.57;4.38;;;;;;;;;;5051980;28;20025;-65
2022/12/25 00:54:24;;;;;;;5.90;4.32;;;;;;;;;;5051510;28;20083;-55
2022/12/25 00:56:49;;;;;;;7.35;4.20;;;;;;;;;;5052350;28;20051;-52
2022/12/25 00:59:15;;;;;;;6.25;4.30;;;;;;;;;;5052618;28;20083;-60
2022/12/25 01:01:40;;;;;;;7.00;4.25;;;;;;;;;;5053199;28;20036;-51
2022/12/25 01:04:07;;;;;;;7.30;4.10;;;;;;;;;;5053557;28;20392;-59
2022/12/25 01:06:33;;;;;;;4.65;3.95;;;;;;;;;;5053537;28;20112;-59
2022/12/25 01:11:43;;;;;;;4.05;3.35;;;;;;;;;;5054960;28;20039;-52
2022/12/25 01:14:10;;;;;;;7.78;3.88;;;;;;;;;;5054417;28;20524;-57
2022/12/25 01:16:35;;;;;;;5.63;4.25;;;;;;;;;;5054437;28;20112;-55
2022/12/25 01:19:01;;;;;;;5.55;3.60;;;;;;;;;;5054426;28;20100;-56
2022/12/25 01:21:27;;;;;;;6.85;4.15;;;;;;;;;;5054240;28;20035;-53
2022/12/25 01:23:53;;;;;;;6.05;3.92;;;;;;;;;;5036827;28;20074;-51
2022/12/25 01:26:23;;;;;;;5.82;3.85;;;;;;;;;;5053018;28;20025;-55
2022/12/25 01:28:50;;;;;;;5.53;3.90;;;;;;;;;;5054469;28;20028;-56
2022/12/25 01:31:18;;;;;;;6.20;4.07;;;;;;;;;;5054422;28;20115;-52
2022/12/25 01:33:45;;;;;;;5.85;4.15;;;;;;;;;;5054117;28;20538;-56
2022/12/25 01:36:28;;;;;;;5.13;4.25;;;;;;;;;;5054163;28;20520;-54
2022/12/25 01:38:54;;;;;;;6.10;4.00;;;;;;;;;;5054069;28;20028;-55
2022/12/25 01:41:22;;;;;;;7.22;3.88;;;;;;;;;;5053928;28;20037;-56
2022/12/25 01:44:00;;;;;;;5.45;3.97;;;;;;;;;;5054212;28;20029;-57
2022/12/25 01:46:26;;;;;;;5.00;3.80;;;;;;;;;;5053955;28;20049;-54
2022/12/25 01:48:53;;;;;;;6.53;4.10;;;;;;;;;;5053813;28;20071;-57
2022/12/25 01:51:36;;;;;;;5.00;3.70;;;;;;;;;;5054085;28;20082;-53
2022/12/25 01:54:07;;;;;;;5.18;3.90;;;;;;;;;;5053834;28;20028;-57
2022/12/25 01:56:33;;;;;;;5.95;3.80;;;;;;;;;;5053520;28;20048;-53
2022/12/25 01:59:01;;;;;;;6.25;3.80;;;;;;;;;;5053731;28;20024;-60
2022/12/25 02:01:26;;;;;;;5.93;3.90;;;;;;;;;;5053456;28;20377;-64
2022/12/25 02:04:00;;;;;;;6.22;3.70;;;;;;;;;;5053619;28;20081;-57
2022/12/25 02:06:29;;;;;;;5.95;3.63;;;;;;;;;;5053518;28;20021;-58
2022/12/25 02:08:55;;;;;;;6.10;3.72;;;;;;;;;;5053754;28;20043;-54
2022/12/25 02:14:08;;;;;;;4.53;3.53;;;;;;;;;;5053688;28;20182;-57
2022/12/25 02:16:37;;;;;;;4.88;4.05;;;;;;;;;;5053248;28;20017;-53
2022/12/25 02:19:18;;;;;;;5.05;3.80;;;;;;;;;;5053540;28;20071;-54
2022/12/25 02:21:44;;;;;;;6.63;4.00;;;;;;;;;;5053150;28;20361;-56
2022/12/25 02:24:28;;;;;;;5.03;4.03;;;;;;;;;;5053175;28;20032;-57
2022/12/25 02:27:31;;;;;;;5.55;3.80;;;;;;;;;;5053109;28;20025;-55
2022/12/25 02:30:03;;;;;;;5.40;4.10;;;;;;;;;;5053332;28;20025;-56
2022/12/25 02:32:38;;;;;;;5.22;3.90;;;;;;;;;;5052934;28;20059;-55
2022/12/25 02:35:14;;;;;;;5.05;3.78;;;;;;;;;;5052947;28;20017;-56
2022/12/25 02:38:03;;;;;;;5.43;4.05;;;;;;;;;;5052869;28;20037;-58
2022/12/25 02:40:41;;;;;;;4.93;3.90;;;;;;;;;;5052314;28;20049;-56
2022/12/25 03:11:58;;;;;;;5.72;4.05;;;;;;;;;;5052713;28;20035;-56
2022/12/25 03:17:09;;;;;;;6.20;4.13;;;;;;;;;;5052653;28;20048;-55
2022/12/25 03:28:02;;;;;;;5.85;3.83;;;;;;;;;;5052582;28;20040;-56
2022/12/25 03:31:12;;;;;;;4.07;3.47;;;;;;;;;;5052210;28;20496;-55
2022/12/25 04:37:55;;;;;;;5.80;3.40;;;;;;;;;;5055805;28;20076;-59
2022/12/25 04:40:21;;;;;;;5.00;3.30;;;;;;;;;;5055032;28;20029;-56
2022/12/25 04:42:49;;;;;;;6.18;3.60;;;;;;;;;;5054516;28;20032;-54
2022/12/25 04:45:15;;;;;;;5.22;3.58;;;;;;;;;;5055336;28;20037;-57
2022/12/25 04:47:40;;;;;;;4.57;3.40;;;;;;;;;;5055003;28;20032;-57
2022/12/25 04:50:07;;;;;;;4.88;3.15;;;;;;;;;;5055060;28;20370;-55
2022/12/25 04:52:37;;;;;;;3.47;3.05;;;;;;;;;;5055452;28;20037;-55
2022/12/25 04:55:04;;;;;;;5.40;3.42;;;;;;;;;;5054901;28;20025;-58
2022/12/25 04:57:30;;;;;;;4.35;3.35;;;;;;;;;;5054695;28;20397;-57
2022/12/25 04:59:55;;;;;;;4.65;3.28;;;;;;;;;;5055026;28;20037;-54
2022/12/25 05:02:21;;;;;;;6.60;3.78;;;;;;;;;;5054613;28;20354;-52
2022/12/25 05:04:46;;;;;;;4.47;3.15;;;;;;;;;;5054987;28;20025;-55
2022/12/25 05:07:12;;;;;;;5.05;3.30;;;;;;;;;;5053408;28;20029;-54
2022/12/25 05:09:40;;;;;;;3.80;3.00;;;;;;;;;;5054919;28;20104;-57
2022/12/25 05:12:09;;;;;;;5.13;3.75;;;;;;;;;;5054623;28;20032;-54
2022/12/25 05:14:36;;;;;;;5.15;3.55;;;;;;;;;;5054458;28;20361;-51
2022/12/25 05:17:01;;;;;;;4.32;3.38;;;;;;;;;;5054488;28;20464;-55
2022/12/25 05:19:27;;;;;;;4.40;3.63;;;;;;;;;;5054412;28;20067;-55
2022/12/25 05:21:53;;;;;;;4.30;3.25;;;;;;;;;;5054346;28;20054;-55
2022/12/25 05:24:19;;;;;;;7.00;3.65;;;;;;;;;;5054544;28;20021;-54
2022/12/25 05:26:45;;;;;;;5.00;3.22;;;;;;;;;;5054312;28;20064;-55
2022/12/25 05:29:10;;;;;;;4.38;3.33;;;;;;;;;;5054257;28;20060;-54
2022/12/25 05:31:36;;;;;;;4.30;3.40;;;;;;;;;;5054507;28;20021;-55
2022/12/25 05:34:01;;;;;;;5.15;3.47;;;;;;;;;;5054118;28;20025;-55
2022/12/25 05:36:27;;;;;;;4.53;3.25;;;;;;;;;;5054450;28;20484;-55
2022/12/25 05:38:53;;;;;;;3.28;2.67;;;;;;;;;;5054294;28;20358;-56
2022/12/25 05:41:18;;;;;;;4.07;3.50;;;;;;;;;;5054203;28;20044;-54
2022/12/25 05:43:44;;;;;;;5.10;3.22;;;;;;;;;;5053995;28;20036;-55
2022/12/25 05:46:11;;;;;;;4.63;3.40;;;;;;;;;;5053972;28;20025;-54
2022/12/25 05:48:38;;;;;;;4.53;3.50;;;;;;;;;;5054126;28;20032;-56
2022/12/25 05:51:05;;;;;;;5.13;3.20;;;;;;;;;;5053862;28;20377;-54
2022/12/25 05:53:31;;;;;;;3.65;2.95;;;;;;;;;;5053684;28;20025;-55
2022/12/25 05:56:02;;;;;;;4.93;3.60;;;;;;;;;;5052975;28;20024;-56
2022/12/25 05:58:29;;;;;;;4.20;3.25;;;;;;;;;;5053540;28;20052;-58
2022/12/25 06:00:54;;;;;;;4.47;3.40;;;;;;;;;;5053535;28;20495;-57
2022/12/25 06:03:20;;;;;;;4.50;3.38;;;;;;;;;;5053738;28;20029;-52
2022/12/25 06:05:45;;;;;;;4.35;3.10;;;;;;;;;;5053568;28;20087;-52
2022/12/25 06:08:11;;;;;;;4.07;3.38;;;;;;;;;;5053480;28;20207;-54
2022/12/25 06:10:36;;;;;;;3.63;3.00;;;;;;;;;;5053446;28;20029;-54
2022/12/25 06:13:02;;;;;;;4.45;3.08;;;;;;;;;;5053652;28;20025;-55
2022/12/25 06:15:28;;;;;;;3.72;3.25;;;;;;;;;;5053473;28;20361;-53
2022/12/25 06:17:54;;;;;;;5.68;3.40;;;;;;;;;;5053307;28;20021;-58
2022/12/25 06:20:20;;;;;;;4.10;3.00;;;;;;;;;;5053237;28;20066;-57
2022/12/25 06:22:45;;;;;;;5.68;3.35;;;;;;;;;;5053158;28;20040;-55
2022/12/25 06:25:11;;;;;;;4.80;3.50;;;;;;;;;;5053174;28;20032;-57
2022/12/25 06:27:37;;;;;;;3.53;3.15;;;;;;;;;;5053138;28;20032;-56
2022/12/25 06:30:04;;;;;;;3.60;3.00;;;;;;;;;;5053121;28;20029;-57
2022/12/25 06:32:29;;;;;;;5.15;3.38;;;;;;;;;;5053037;28;20082;-58
2022/12/25 06:34:55;;;;;;;4.25;3.17;;;;;;;;;;5053270;28;20448;-56
2022/12/25 06:37:20;;;;;;;4.50;3.40;;;;;;;;;;5053197;28;20480;-55
2022/12/25 06:39:46;;;;;;;3.90;3.20;;;;;;;;;;5053135;28;20412;-59
2022/12/25 06:42:12;;;;;;;4.13;3.28;;;;;;;;;;5052743;28;20033;-55
2022/12/25 06:44:38;;;;;;;4.15;3.13;;;;;;;;;;5053153;28;20021;-55
2022/12/25 06:47:04;;;;;;;4.93;3.67;;;;;;;;;;5053036;28;20455;-55
2022/12/25 06:49:29;;;;;;;5.13;3.70;;;;;;;;;;5052813;28;20492;-55
2022/12/25 06:51:55;;;;;;;3.33;3.03;;;;;;;;;;5052728;28;20033;-54
2022/12/25 06:54:20;;;;;;;4.22;3.03;;;;;;;;;;5052629;28;20031;-53
2022/12/25 06:56:46;;;;;;;4.38;3.20;;;;;;;;;;5052434;28;20064;-55
2022/12/25 06:59:12;;;;;;;3.70;3.10;;;;;;;;;;5052867;28;20021;-54
2022/12/25 07:01:47;;;;;;;3.35;2.92;;;;;;;;;;5052529;28;20519;-55
2022/12/25 07:04:21;;;;;;;3.58;3.00;;;;;;;;;;5052933;28;20048;-58
2022/12/25 07:06:46;;;;;;;3.15;2.85;;;;;;;;;;5052682;28;20377;-57
2022/12/25 07:09:12;;;;;;;4.07;3.10;;;;;;;;;;5052563;28;20074;-56
2022/12/25 07:11:38;;;;;;;4.32;3.15;;;;;;;;;;5052381;28;20128;-52
2022/12/25 07:14:03;;;;;;;3.88;2.88;;;;;;;;;;5052436;28;20025;-56
2022/12/25 07:16:29;;;;;;;4.75;3.05;;;;;;;;;;5052288;28;20029;-52
2022/12/25 07:18:54;;;;;;;4.18;3.05;;;;;;;;;;5052393;28;20063;-56
2022/12/25 07:21:20;;;;;;;3.92;3.30;;;;;;;;;;5052228;28;20112;-55
2022/12/25 07:23:48;;;;;;;4.35;3.25;;;;;;;;;;5052258;28;20036;-55
2022/12/25 07:26:16;;;;;;;3.95;3.13;;;;;;;;;;5052170;28;20060;-57
2022/12/25 07:28:42;;;;;;;4.70;3.35;;;;;;;;;;5052320;28;20376;-53
2022/12/25 07:31:13;;;;;;;4.68;3.17;;;;;;;;;;5052201;28;20656;-54
2022/12/25 07:33:39;;;;;;;5.10;3.45;;;;;;;;;;5052274;28;20021;-57
2022/12/25 07:36:06;;;;;;;4.82;3.00;;;;;;;;;;5034240;28;20402;-56
2022/12/25 07:38:32;;;;;;;3.55;3.00;;;;;;;;;;5052147;28;20028;-55
2022/12/25 07:40:58;;;;;;;4.45;3.67;;;;;;;;;;5051975;28;20116;-55
2022/12/25 07:43:24;;;;;;;4.32;3.55;;;;;;;;;;5052085;28;20112;-57
2022/12/25 07:45:57;;;;;;;3.58;2.92;;;;;;;;;;5052062;28;20084;-59
2022/12/25 07:48:24;;;;;;;4.45;3.05;;;;;;;;;;5052095;28;20013;-57
2022/12/25 07:50:58;;;;;;;3.65;3.17;;;;;;;;;;5051937;28;20049;-63
2022/12/25 07:53:24;;;;;;;3.88;3.28;;;;;;;;;;5051995;28;20028;-63
2022/12/25 07:56:01;;;;;;;3.85;3.08;;;;;;;;;;5050631;28;20025;-60
2022/12/25 07:58:28;;;;;;;4.25;3.10;;;;;;;;;;5051810;28;20489;-54
2022/12/25 08:01:06;;;;;;;5.50;3.03;;;;;;;;;;5051822;28;20047;-53
2022/12/25 08:03:33;;;;;;;4.28;3.17;;;;;;;;;;5051920;28;20135;-56
2022/12/25 08:06:04;;;;;;;3.28;2.75;;;;;;;;;;5052152;28;20101;-62
2022/12/25 08:08:30;;;;;;;3.53;2.88;;;;;;;;;;5051922;28;20545;-54
2022/12/25 08:10:55;;;;;;;5.03;3.38;;;;;;;;;;5051758;28;20064;-55
2022/12/25 08:13:21;;;;;;;3.67;2.95;;;;;;;;;;5051814;28;20025;-57
2022/12/25 08:15:47;;;;;;;3.40;3.10;;;;;;;;;;5051834;28;20057;-56
2022/12/25 08:18:13;;;;;;;4.00;2.95;;;;;;;;;;5053054;28;20053;-58
2022/12/25 08:20:39;;;;;;;3.42;2.90;;;;;;;;;;5054033;28;20060;-65
2022/12/25 08:23:05;;;;;;;3.00;2.70;;;;;;;;;;5050798;28;20443;-68
2022/12/25 08:25:31;;;;;;;3.55;2.90;;;;;;;;;;5058598;28;20462;-56
2022/12/25 08:28:00;;;;;;;4.03;3.20;;;;;;;;;;5075389;28;20104;-57
2022/12/25 08:30:26;;;;;;;4.22;3.08;;;;;;;;;;5075422;28;20035;-60
2022/12/25 08:32:52;;;;;;;3.63;2.90;;;;;;;;;;5048691;28;20230;-54
2022/12/25 08:35:17;;;;;;;3.60;2.78;;;;;;;;;;5054239;28;20029;-63
2022/12/25 08:37:43;;;;;;;3.45;2.95;;;;;;;;;;5052745;28;20051;-66
2022/12/25 08:40:09;;;;;;;3.33;3.03;;;;;;;;;;5051404;28;20024;-55
2022/12/25 08:42:36;;;;;;;3.22;2.67;;;;;;;;;;5052477;28;20021;-61
2022/12/25 08:45:03;;;;;;;3.92;3.05;;;;;;;;;;5051046;28;20021;-54
2022/12/25 08:47:29;;;;;;;5.03;3.13;;;;;;;;;;5052152;28;20075;-69
2022/12/25 08:49:55;;;;;;;3.72;2.88;;;;;;;;;;5051449;28;20052;-53
2022/12/25 08:52:20;;;;;;;3.33;3.00;;;;;;;;;;5050680;28;20025;-70
2022/12/25 08:54:46;;;;;;;4.70;3.33;;;;;;;;;;5054414;28;20029;-60
2022/12/25 08:57:11;;;;;;;3.58;2.78;;;;;;;;;;5054477;28;20076;-58
2022/12/25 08:59:37;;;;;;;3.08;2.67;;;;;;;;;;5036871;28;20041;-56
2022/12/25 09:02:03;;;;;;;3.30;2.97;;;;;;;;;;5041036;28;20029;-51
2022/12/25 09:04:28;;;;;;;3.70;2.70;;;;;;;;;;5034810;28;20029;-55
2022/12/25 09:06:54;;;;;;;3.55;2.90;;;;;;;;;;5034591;28;20021;-53
2022/12/25 09:09:20;;;;;;;3.58;3.08;;;;;;;;;;5034722;28;20017;-62
2022/12/25 09:11:47;;;;;;;4.00;2.80;;;;;;;;;;5034388;28;20121;-63
2022/12/25 09:14:13;;;;;;;3.90;2.70;;;;;;;;;;5044269;28;20035;-69
2022/12/25 09:16:38;;;;;;;3.72;2.78;;;;;;;;;;5054318;28;20384;-52
2022/12/25 09:19:04;;;;;;;4.07;2.70;;;;;;;;;;5054607;28;20384;-54
2022/12/25 09:21:29;;;;;;;3.35;2.90;;;;;;;;;;5054305;28;20366;-55
2022/12/25 09:23:55;;;;;;;3.55;2.92;;;;;;;;;;5054377;28;20083;-53
2022/12/25 09:26:20;;;;;;;3.45;2.90;;;;;;;;;;5054156;28;20025;-55
2022/12/25 09:28:46;;;;;;;3.38;2.72;;;;;;;;;;5053853;28;20025;-55
2022/12/25 09:31:12;;;;;;;3.55;2.80;;;;;;;;;;5053131;28;20095;-55
2022/12/25 09:33:37;;;;;;;3.38;2.80;;;;;;;;;;5054441;28;20021;-68
2022/12/25 09:36:06;;;;;;;3.22;2.90;;;;;;;;;;5054011;28;20028;-53
2022/12/25 09:38:33;;;;;;;4.18;2.80;;;;;;;;;;5054044;28;20112;-54
2022/12/25 09:41:00;;;;;;;2.90;2.60;;;;;;;;;;5053927;28;20021;-52
2022/12/25 09:43:30;;;;;;;3.10;2.63;;;;;;;;;;5036088;28;20067;-52
2022/12/25 09:45:57;;;;;;;4.05;2.90;;;;;;;;;;5053924;28;20040;-56
2022/12/25 09:48:24;;;;;;;4.93;2.95;;;;;;;;;;5054150;28;20121;-56
2022/12/25 09:50:54;;;;;;;3.72;2.78;;;;;;;;;;5053753;28;20028;-56
2022/12/25 09:53:33;;;;;;;;;;;;;;;;;;5054302;28;20033;-52
2022/12/25 09:56:08;;;;;;;2.90;2.53;;;;;;;;;;5053748;28;20572;-53
2022/12/25 09:58:34;;;;;;;3.03;2.72;;;;;;;;;;5033773;28;20042;-55
2022/12/25 10:01:28;;;;;;;2.70;2.40;;;;;;;;;;5032543;28;20028;-52
2022/12/25 10:03:54;;;;;;;3.20;2.88;;;;;;;;;;5033572;28;20104;-57
2022/12/25 10:06:23;;;;;;;3.20;2.70;;;;;;;;;;5033540;28;20132;-55
2022/12/25 10:09:11;;;;;;;3.35;2.75;;;;;;;;;;5033602;28;20029;-55
2022/12/25 10:11:43;;;;;;;3.30;2.55;;;;;;;;;;5033386;28;20042;-55
2022/12/25 10:14:27;;;;;;;3.83;2.97;;;;;;;;;;5033484;28;20025;-52
2022/12/25 10:17:34;;;;;;;3.17;2.63;;;;;;;;;;5033723;28;20410;-55
2022/12/25 10:20:33;;;;;;;3.67;2.63;;;;;;;;;;5033342;28;20021;-55
2022/12/25 10:23:02;;;;;;;3.65;2.80;;;;;;;;;;5033415;28;20037;-56
2022/12/25 10:25:29;;;;;;;3.03;2.70;;;;;;;;;;5033200;28;20466;-57
2022/12/25 10:28:03;;;;;;;3.00;2.70;;;;;;;;;;5033497;28;20040;-61
2022/12/25 10:30:30;;;;;;;3.35;2.83;;;;;;;;;;5033441;28;20025;-56
2022/12/25 10:32:56;;;;;;;3.28;2.88;;;;;;;;;;5033384;28;20037;-52
2022/12/25 10:35:25;;;;;;;3.80;3.00;;;;;;;;;;5032987;28;20488;-59
2022/12/25 10:38:05;;;;;;;2.92;2.60;;;;;;;;;;5033094;28;20108;-53
2022/12/25 10:41:08;;;;;;;3.92;2.95;;;;;;;;;;5032861;28;20031;-58
2022/12/25 10:43:46;;;;;;;2.78;2.55;;;;;;;;;;5032860;28;20500;-57
2022/12/25 10:46:14;;;;;;;3.90;2.90;;;;;;;;;;5032928;28;20021;-68
2022/12/25 10:48:48;;;;;;;4.28;2.90;;;;;;;;;;5032908;28;20021;-59
2022/12/25 10:51:24;;;;;;;3.65;2.75;;;;;;;;;;5032767;28;20028;-53
2022/12/25 10:53:50;;;;;;;3.63;2.60;;;;;;;;;;5032835;28;20021;-57
2022/12/25 10:56:19;;;;;;;3.10;2.80;;;;;;;;;;5034289;28;20025;-56
2022/12/25 10:58:45;;;;;;;3.33;2.83;;;;;;;;;;5052727;28;20086;-55
2022/12/25 11:01:11;;;;;;;3.03;2.70;;;;;;;;;;5052400;28;20286;-54
2022/12/25 11:03:40;;;;;;;2.92;2.60;;;;;;;;;;5052781;28;20534;-57
2022/12/25 11:06:19;;;;;;;2.50;2.30;;;;;;;;;;5052511;28;20029;-55
2022/12/25 11:08:53;;;;;;;3.03;2.70;;;;;;;;;;5052518;28;20063;-58
2022/12/25 11:11:20;;;;;;;3.70;2.65;;;;;;;;;;5052467;28;20032;-52
2022/12/25 11:13:55;;;;;;;3.00;2.58;;;;;;;;;;5052472;28;20029;-53
2022/12/25 11:16:31;;;;;;;3.20;2.60;;;;;;;;;;5052523;28;20079;-56
2022/12/25 11:18:58;;;;;;;3.00;2.75;;;;;;;;;;5052223;28;20108;-58
2022/12/25 11:21:26;;;;;;;3.17;2.78;;;;;;;;;;5052292;28;20036;-56
2022/12/25 11:24:01;;;;;;;3.25;2.40;;;;;;;;;;5050444;28;20036;-60
2022/12/25 11:26:30;;;;;;;3.47;2.40;;;;;;;;;;5047102;28;20021;-69
2022/12/25 11:28:57;;;;;;;3.15;2.80;;;;;;;;;;5046096;28;20029;-56
2022/12/25 11:31:35;;;;;;;2.90;2.60;;;;;;;;;;5051573;28;20035;-59
2022/12/25 11:34:23;;;;;;;4.25;2.90;;;;;;;;;;5052378;28;20055;-59
2022/12/25 11:36:51;;;;;;;4.22;2.35;;;;;;;;;;5036040;28;20028;-60
2022/12/25 11:39:31;;;;;;;5.43;2.85;;;;;;;;;;5034691;28;20029;-60
2022/12/25 11:41:56;;;;;;;;;;;;;;;;;;5052457;28;20040;-60
2022/12/25 11:44:39;;;;;;;3.00;2.70;;;;;;;;;;5049703;28;19962;-70
2022/12/25 11:47:43;;;;;;;4.45;2.50;;;;;;;;;;5049899;28;20033;-71
2022/12/25 11:50:15;;;;;;;4.28;2.88;;;;;;;;;;5029005;28;20036;-70
2022/12/25 11:52:45;;;;;;;3.42;2.67;;;;;;;;;;5052061;28;20057;-61
2022/12/25 11:55:42;;;;;;;6.35;2.90;;;;;;;;;;5053065;28;20087;-65
2022/12/25 11:58:28;;;;;;;8.02;3.78;;;;;;;;;;5041321;28;20041;-69
2022/12/25 12:00:56;;;;;;;8.38;2.58;;;;;;;;;;5055885;28;20056;-63
2022/12/25 12:03:36;;;;;;;12.57;2.88;;;;;;;;;;5056070;28;20473;-62
2022/12/25 12:06:12;;;;;;;3.25;2.38;;;;;;;;;;5055798;28;20037;-62
2022/12/25 12:08:38;;;;;;;4.60;2.40;;;;;;;;;;5055812;28;20087;-62
2022/12/25 12:11:15;;;;;;;3.90;2.80;;;;;;;;;;5055873;28;20028;-62
2022/12/25 12:14:12;;;;;;;7.30;2.60;;;;;;;;;;5055455;28;20163;-63
2022/12/25 12:16:38;;;;;;;4.75;2.63;;;;;;;;;;5055583;28;20500;-62
2022/12/25 12:19:23;;;;;;;5.68;2.13;;;;;;;;;;5055602;28;20029;-63
2022/12/25 12:21:49;;;;;;;7.78;2.85;;;;;;;;;;5055429;28;20025;-64
2022/12/25 12:24:22;;;;;;;3.42;2.20;;;;;;;;;;5055333;28;20021;-65
2022/12/25 12:27:03;;;;;;;3.38;2.58;;;;;;;;;;5055741;28;20035;-65
2022/12/25 12:29:39;;;;;;;6.75;2.42;;;;;;;;;;5055679;28;20025;-64
2022/12/25 12:32:19;;;;;;;2.90;2.28;;;;;;;;;;5054949;28;20489;-65
2022/12/25 12:34:50;;;;;;;7.85;2.35;;;;;;;;;;5055459;28;20353;-61
2022/12/25 12:37:30;;;;;;;7.53;2.35;;;;;;;;;;5055052;28;20488;-62
2022/12/25 12:39:56;;;;;;;3.05;2.20;;;;;;;;;;5054752;28;20557;-62
2022/12/25 12:42:26;;;;;;;4.30;2.30;;;;;;;;;;5054739;28;20063;-62
2022/12/25 12:44:55;;;;;;;5.57;2.75;;;;;;;;;;5053513;28;20017;-62
2022/12/25 12:47:36;;;;;;;5.18;2.60;;;;;;;;;;5054924;28;20051;-62
2022/12/25 12:50:04;;;;;;;2.88;2.45;;;;;;;;;;5054882;28;20381;-62
2022/12/25 12:52:34;;;;;;;3.10;2.75;;;;;;;;;;5054882;28;20111;-62
2022/12/25 12:55:04;;;;;;;3.97;2.50;;;;;;;;;;5054292;28;20431;-62
2022/12/25 12:57:33;;;;;;;3.10;2.72;;;;;;;;;;5054663;28;20076;-62
2022/12/25 13:00:00;;;;;;;3.38;2.60;;;;;;;;;;5054754;28;20025;-62
2022/12/25 13:03:00;;;;;;;4.13;2.58;;;;;;;;;;5054707;28;20036;-62
2022/12/25 13:05:49;;;;;;;5.50;2.50;;;;;;;;;;5054756;28;20447;-62
2022/12/25 13:08:18;;;;;;;3.20;2.70;;;;;;;;;;5054706;28;20531;-62
2022/12/25 13:10:48;;;;;;;4.72;2.92;;;;;;;;;;5054654;28;20025;-62
2022/12/25 13:13:22;;;;;;;;;;;;;;;;;;5054908;28;20059;-62
2022/12/25 13:15:49;;;;;;;4.60;2.40;;;;;;;;;;5054828;28;19947;-63
2022/12/25 13:18:16;;;;;;;3.63;2.50;;;;;;;;;;5054473;28;20025;-63
2022/12/25 13:20:55;;;;;;;3.92;2.28;;;;;;;;;;5054421;28;20029;-63
2022/12/25 13:23:36;;;;;;;3.15;2.40;;;;;;;;;;5054378;28;20025;-63
2022/12/25 13:26:03;;;;;;;3.70;2.33;;;;;;;;;;5054462;28;20090;-63
2022/12/25 13:28:34;;;;;;;3.58;2.58;;;;;;;;;;5054189;28;20040;-63
2022/12/25 13:31:11;;;;;;;3.45;2.35;;;;;;;;;;5054632;28;20100;-63
2022/12/25 13:33:38;;;;;;;3.83;2.33;;;;;;;;;;5054221;28;20074;-63
2022/12/25 13:36:09;;;;;;;3.85;2.47;;;;;;;;;;5054140;28;20024;-63
2022/12/25 13:38:34;;;;;;;4.03;2.60;;;;;;;;;;5054051;28;20017;-63
2022/12/25 13:43:46;;;;;;;2.85;2.50;;;;;;;;;;5054281;28;20033;-63
2022/12/25 13:46:13;;;;;;;3.50;2.70;;;;;;;;;;5054319;28;20048;-63
2022/12/25 13:48:40;;;;;;;2.53;2.25;;;;;;;;;;5054125;28;20025;-65
2022/12/25 13:51:14;;;;;;;3.17;2.55;;;;;;;;;;5054060;28;20052;-63
2022/12/25 13:53:40;;;;;;;3.40;2.65;;;;;;;;;;5053884;28;20017;-62
2022/12/25 13:56:11;;;;;;;2.65;2.30;;;;;;;;;;5053620;28;20556;-62
2022/12/25 13:58:38;;;;;;;2.85;2.38;;;;;;;;;;5034134;28;20083;-62
2022/12/25 14:01:04;;;;;;;4.55;2.42;;;;;;;;;;5033738;28;20064;-63
2022/12/25 14:03:42;;;;;;;2.95;2.15;;;;;;;;;;5033640;28;20025;-62
2022/12/25 14:06:31;;;;;;;2.60;2.38;;;;;;;;;;5033812;28;20029;-63
2022/12/25 14:08:58;;;;;;;3.65;2.58;;;;;;;;;;5033726;28;20063;-62
2022/12/25 14:11:28;;;;;;;4.80;2.33;;;;;;;;;;5033768;28;20029;-63
2022/12/25 14:13:58;;;;;;;2.80;2.40;;;;;;;;;;5033507;28;20018;-62
2022/12/25 14:16:25;;;;;;;3.05;2.53;;;;;;;;;;5032761;28;20025;-63
2022/12/25 14:19:01;;;;;;;3.22;2.55;;;;;;;;;;5033331;28;20482;-63
2022/12/25 14:21:31;;;;;;;2.88;2.38;;;;;;;;;;5033626;28;20037;-62
2022/12/25 14:23:57;;;;;;;2.47;2.20;;;;;;;;;;5033382;28;20048;-62
2022/12/25 14:26:28;;;;;;;2.90;2.60;;;;;;;;;;5033190;28;20026;-63
2022/12/25 14:29:09;;;;;;;3.10;2.60;;;;;;;;;;5033360;28;20104;-63
2022/12/25 14:31:37;;;;;;;;;;;;;;;;;;5033930;28;20083;-63
2022/12/25 14:34:09;;;;;;;2.40;2.20;;;;;;;;;;5033094;28;19917;-62
2022/12/25 14:36:35;;;;;;;3.03;2.33;;;;;;;;;;5033170;28;20022;-62
2022/12/25 14:39:04;;;;;;;4.65;2.50;;;;;;;;;;5033034;28;20036;-62
2022/12/25 14:41:32;;;;;;;5.03;2.45;;;;;;;;;;5032889;28;20033;-62
2022/12/25 14:44:01;;;;;;;3.00;2.45;;;;;;;;;;5033081;28;20025;-63
2022/12/25 14:46:30;;;;;;;2.42;2.05;;;;;;;;;;5032824;28;20018;-62
2022/12/25 14:49:20;;;;;;;3.70;2.55;;;;;;;;;;5032967;28;20474;-62
2022/12/25 14:51:45;;;;;;;3.85;2.40;;;;;;;;;;5032536;28;20067;-62
2022/12/25 14:54:29;;;;;;;2.67;2.38;;;;;;;;;;5033035;28;20536;-62
2022/12/25 14:56:55;;;;;;;2.58;2.33;;;;;;;;;;5039385;28;20554;-62
2022/12/25 14:59:24;;;;;;;3.67;2.30;;;;;;;;;;5052716;28;20033;-62
2022/12/25 15:02:02;;;;;;;2.80;2.20;;;;;;;;;;5052388;28;20024;-62
2022/12/25 15:04:28;;;;;;;2.67;2.20;;;;;;;;;;5052576;28;20035;-62
2022/12/25 15:07:08;;;;;;;3.08;2.10;;;;;;;;;;5052538;28;20027;-64
2022/12/25 15:09:34;;;;;;;3.10;2.60;;;;;;;;;;5052467;28;20033;-62
2022/12/25 15:12:00;;;;;;;3.63;2.33;;;;;;;;;;5052653;28;20029;-62
2022/12/25 15:14:26;;;;;;;4.55;2.63;;;;;;;;;;5052299;28;20033;-62
2022/12/25 15:16:56;;;;;;;3.15;2.60;;;;;;;;;;5052415;28;20412;-63
2022/12/25 15:19:25;;;;;;;3.15;2.45;;;;;;;;;;5052360;28;20108;-62
2022/12/25 15:21:50;;;;;;;3.13;2.40;;;;;;;;;;5052279;28;20025;-62
2022/12/25 15:24:17;;;;;;;3.40;2.33;;;;;;;;;;5052586;28;20542;-62
2022/12/25 15:26:43;;;;;;;3.47;2.20;;;;;;;;;;5052184;28;20579;-62
2022/12/25 15:29:09;;;;;;;2.72;2.42;;;;;;;;;;5034354;28;20059;-62
2022/12/25 15:31:36;;;;;;;2.78;2.25;;;;;;;;;;5052506;28;20476;-62
2022/12/25 15:34:14;;;;;;;2.85;2.40;;;;;;;;;;5052271;28;20103;-62
2022/12/25 15:36:40;;;;;;;3.08;2.47;;;;;;;;;;5034237;28;20053;-62
2022/12/25 15:39:06;;;;;;;5.55;2.35;;;;;;;;;;5052116;28;20087;-62
2022/12/25 15:44:19;;;;;;;3.72;2.42;;;;;;;;;;5052324;28;20040;-62
2022/12/25 15:46:46;;;;;;;3.13;2.55;;;;;;;;;;5051979;28;20241;-62
2022/12/25 15:49:13;;;;;;;3.17;2.30;;;;;;;;;;5052228;28;20025;-62
2022/12/25 15:51:39;;;;;;;3.78;2.50;;;;;;;;;;5034102;28;20029;-62
2022/12/25 15:54:05;;;;;;;3.08;2.38;;;;;;;;;;5051931;28;20403;-62
2022/12/25 15:56:40;;;;;;;5.20;2.40;;;;;;;;;;5052077;28;20099;-62
2022/12/25 15:59:05;;;;;;;3.25;2.25;;;;;;;;;;5051862;28;20059;-62
2022/12/25 16:01:31;;;;;;;4.68;2.50;;;;;;;;;;5051815;28;20037;-62
2022/12/25 16:03:56;;;;;;;4.00;2.78;;;;;;;;;;5051816;28;20036;-62
2022/12/25 16:06:24;;;;;;;3.42;2.40;;;;;;;;;;5051923;28;20112;-62
2022/12/25 16:08:50;;;;;;;2.90;2.60;;;;;;;;;;5052071;28;20029;-62
2022/12/25 16:11:15;;;;;;;5.30;2.50;;;;;;;;;;5052067;28;20164;-62
2022/12/25 16:13:41;;;;;;;2.80;2.60;;;;;;;;;;5051761;28;20047;-62
2022/12/25 16:16:10;;;;;;;3.50;2.63;;;;;;;;;;5051879;28;20025;-62
2022/12/25 16:18:35;;;;;;;3.13;2.40;;;;;;;;;;5051666;28;20053;-62
2022/12/25 16:21:01;;;;;;;3.22;2.38;;;;;;;;;;5051675;28;20055;-62
2022/12/25 16:23:27;;;;;;;2.50;2.30;;;;;;;;;;5051754;28;20032;-62
2022/12/25 16:25:52;;;;;;;2.80;2.28;;;;;;;;;;5051873;28;20075;-62
2022/12/25 16:28:18;;;;;;;2.30;2.05;;;;;;;;;;5051644;28;20021;-62
2022/12/25 16:30:44;;;;;;;4.00;2.22;;;;;;;;;;5051688;28;20029;-63
2022/12/25 16:33:10;;;;;;;2.53;2.33;;;;;;;;;;5051515;28;20104;-63
2022/12/25 16:35:35;;;;;;;2.90;2.35;;;;;;;;;;5051600;28;20036;-62
2022/12/25 16:38:01;;;;;;;2.40;2.10;;;;;;;;;;5051842;28;20029;-62
2022/12/25 16:40:27;;;;;;;3.08;2.47;;;;;;;;;;5053480;28;20393;-63
2022/12/25 16:42:54;;;;;;;2.88;2.47;;;;;;;;;;5055016;28;20037;-62
2022/12/25 16:45:20;;;;;;;4.55;2.40;;;;;;;;;;5055098;28;20108;-63
2022/12/25 16:47:46;;;;;;;2.53;2.30;;;;;;;;;;5054951;28;20103;-63
2022/12/25 16:50:11;;;;;;;3.10;2.20;;;;;;;;;;5055083;28;20064;-62
2022/12/25 16:52:37;;;;;;;2.63;2.13;;;;;;;;;;5054120;28;20040;-62
2022/12/25 16:55:03;;;;;;;2.70;2.30;;;;;;;;;;5055112;28;20025;-62